createdAt,value
2019-03-15T00:00:15.609Z,99.99
2019-03-15T00:01:15.630Z,99.99
2019-03-15T00:02:15.662Z,99.99
2019-03-15T00:03:15.603Z,99.99
2019-03-15T00:04:15.571Z,99.99
2019-03-15T00:05:15.579Z,99.99
2019-03-15T00:06:15.543Z,99.99
2019-03-15T00:07:15.678Z,99.99
2019-03-15T00:08:15.558Z,99.99
2019-03-15T00:09:15.529Z,99.99
2019-03-15T00:10:15.538Z,99.99
2019-03-15T00:11:15.540Z,99.99
2019-03-15T00:12:15.491Z,99.99
2019-03-15T00:13:15.485Z,99.99
2019-03-15T00:14:15.465Z,99.99
2019-03-15T00:15:15.489Z,99.99
2019-03-15T00:16:15.470Z,99.99
2019-03-15T00:17:15.437Z,99.99
2019-03-15T00:18:15.429Z,99.99
2019-03-15T00:19:15.409Z,99.99
2019-03-15T00:20:15.411Z,99.99
2019-03-15T00:21:15.445Z,99.99
2019-03-15T00:22:15.413Z,99.99
2019-03-15T00:23:15.371Z,99.99
2019-03-15T00:24:15.369Z,99.99
2019-03-15T00:25:15.383Z,99.99
2019-03-15T00:26:15.341Z,99.99
2019-03-15T00:27:15.460Z,99.99
2019-03-15T00:28:15.316Z,99.99
2019-03-15T00:29:15.316Z,99.99
2019-03-15T00:30:15.299Z,99.99
2019-03-15T00:31:15.296Z,99.99
2019-03-15T00:32:15.286Z,99.99
2019-03-15T00:33:15.302Z,99.99
2019-03-15T00:34:15.259Z,99.99
2019-03-15T00:35:15.260Z,99.99
2019-03-15T00:36:15.232Z,99.99
2019-03-15T00:37:15.251Z,99.99
2019-03-15T00:38:15.218Z,99.99
2019-03-15T00:39:15.253Z,99.99
2019-03-15T00:40:15.211Z,99.99
2019-03-15T00:41:15.186Z,99.99
2019-03-15T00:42:15.211Z,99.99
2019-03-15T00:43:15.184Z,99.99
2019-03-15T00:44:15.196Z,99.99
2019-03-15T00:45:15.141Z,99.99
2019-03-15T00:46:15.141Z,99.99
2019-03-15T00:48:33.902Z,99.99
2019-03-15T00:49:33.922Z,99.99
2019-03-15T00:50:33.992Z,99.99
2019-03-15T00:51:33.866Z,99.99
2019-03-15T00:52:33.875Z,99.99
2019-03-15T00:53:33.874Z,99.99
2019-03-15T00:54:33.832Z,99.99
2019-03-15T00:55:33.819Z,99.99
2019-03-15T00:56:33.819Z,99.99
2019-03-15T00:57:33.809Z,99.99
2019-03-15T00:58:33.826Z,99.99
2019-03-15T00:59:33.793Z,99.99
2019-03-15T01:00:33.782Z,99.99
2019-03-15T01:01:33.773Z,99.99
2019-03-15T01:02:33.755Z,99.99
2019-03-15T01:03:33.787Z,99.99
2019-03-15T01:04:33.740Z,99.99
2019-03-15T01:05:33.730Z,99.99
2019-03-15T01:06:33.717Z,99.99
2019-03-15T01:07:33.734Z,99.99
2019-03-15T01:08:33.717Z,99.99
2019-03-15T01:09:33.777Z,99.99
2019-03-15T01:10:33.673Z,99.99
2019-03-15T01:11:33.664Z,99.99
2019-03-15T01:12:33.687Z,99.99
2019-03-15T01:13:33.678Z,99.99
2019-03-15T01:14:33.635Z,99.99
2019-03-15T01:15:33.662Z,99.99
2019-03-15T01:16:34.686Z,99.99
2019-03-15T01:17:33.601Z,99.99
2019-03-15T01:18:33.621Z,99.99
2019-03-15T01:19:33.601Z,99.99
2019-03-15T01:20:33.610Z,99.99
2019-03-15T01:21:33.564Z,99.99
2019-03-15T01:22:33.556Z,99.99
2019-03-15T01:23:33.581Z,99.99
2019-03-15T01:24:33.539Z,99.99
2019-03-15T01:25:33.519Z,99.99
2019-03-15T01:26:33.515Z,99.99
2019-03-15T01:27:33.503Z,99.99
2019-03-15T01:28:33.491Z,99.99
2019-03-15T01:29:34.130Z,99.99
2019-03-15T01:30:33.471Z,99.99
2019-03-15T01:31:33.467Z,99.99
2019-03-15T01:32:33.447Z,99.99
2019-03-15T01:33:33.436Z,99.99
2019-03-15T01:34:33.423Z,99.99
2019-03-15T01:35:34.086Z,99.99
2019-03-15T01:36:33.446Z,99.99
2019-03-15T01:37:33.397Z,99.99
2019-03-15T01:38:33.389Z,99.99
2019-03-15T01:39:33.427Z,99.99
2019-03-15T01:40:33.360Z,99.99
2019-03-15T01:41:33.405Z,99.99
2019-03-15T01:42:33.364Z,99.99
2019-03-15T01:43:33.366Z,99.99
2019-03-15T01:44:33.714Z,99.99
2019-03-15T01:45:33.317Z,99.99
2019-03-15T01:46:33.706Z,99.99
2019-03-15T01:47:33.303Z,99.99
2019-03-15T01:48:33.288Z,99.99
2019-03-15T01:49:33.632Z,99.99
2019-03-15T01:50:33.267Z,99.99
2019-03-15T01:51:33.255Z,99.99
2019-03-15T01:52:33.582Z,99.99
2019-03-15T01:53:33.255Z,99.99
2019-03-15T01:54:33.255Z,99.99
2019-03-15T01:55:33.223Z,99.99
2019-03-15T01:56:34.139Z,99.99
2019-03-15T01:57:33.187Z,99.99
2019-03-15T01:58:33.217Z,99.99
2019-03-15T01:59:33.216Z,99.99
2019-03-15T02:00:33.159Z,99.99
2019-03-15T02:01:33.153Z,99.99
2019-03-15T02:02:33.154Z,99.99
2019-03-15T02:03:33.145Z,99.99
2019-03-15T02:04:33.186Z,99.99
2019-03-15T02:05:33.124Z,99.99
2019-03-15T02:06:33.123Z,99.99
2019-03-15T02:07:33.145Z,99.99
2019-03-15T02:08:33.648Z,99.99
2019-03-15T02:09:33.106Z,99.99
2019-03-15T02:10:33.057Z,99.99
2019-03-15T02:11:33.055Z,99.99
2019-03-15T02:12:33.080Z,99.99
2019-03-15T02:13:33.040Z,99.99
2019-03-15T02:14:33.101Z,99.99
2019-03-15T02:15:33.031Z,99.99
2019-03-15T02:16:33.062Z,99.99
2019-03-15T02:17:33.014Z,99.99
2019-03-15T02:18:32.984Z,99.99
2019-03-15T02:19:33.003Z,99.99
2019-03-15T02:20:32.962Z,99.99
2019-03-15T02:21:32.946Z,99.99
2019-03-15T02:22:33.520Z,99.99
2019-03-15T02:23:32.943Z,99.99
2019-03-15T02:24:32.964Z,99.99
2019-03-15T02:25:32.955Z,99.99
2019-03-15T02:26:32.900Z,99.99
2019-03-15T02:27:32.886Z,99.99
2019-03-15T02:28:32.894Z,99.99
2019-03-15T02:29:32.892Z,99.99
2019-03-15T02:30:32.856Z,99.99
2019-03-15T02:31:32.867Z,99.99
2019-03-15T02:32:32.848Z,99.99
2019-03-15T02:33:33.595Z,99.99
2019-03-15T02:34:32.859Z,99.99
2019-03-15T02:35:32.821Z,99.99
2019-03-15T02:36:32.828Z,99.99
2019-03-15T02:37:33.761Z,99.99
2019-03-15T02:38:32.784Z,99.99
2019-03-15T02:39:32.792Z,99.99
2019-03-15T02:40:32.759Z,99.99
2019-03-15T02:41:32.737Z,99.99
2019-03-15T02:42:32.752Z,99.99
2019-03-15T02:43:32.727Z,99.99
2019-03-15T02:44:32.781Z,99.99
2019-03-15T02:45:33.110Z,99.99
2019-03-15T02:46:32.703Z,99.99
2019-03-15T02:47:32.717Z,99.99
2019-03-15T02:48:32.672Z,99.99
2019-03-15T02:49:32.664Z,99.99
2019-03-15T02:50:32.695Z,99.99
2019-03-15T02:51:32.641Z,99.99
2019-03-15T02:52:32.639Z,99.99
2019-03-15T02:53:32.631Z,99.99
2019-03-15T02:54:32.612Z,99.99
2019-03-15T02:55:32.646Z,99.99
2019-03-15T02:56:32.589Z,99.99
2019-03-15T02:57:32.581Z,99.99
2019-03-15T02:58:32.563Z,99.99
2019-03-15T02:59:32.579Z,99.99
2019-03-15T03:00:32.596Z,99.99
2019-03-15T03:01:33.944Z,99.99
2019-03-15T03:02:32.527Z,99.99
2019-03-15T03:03:32.542Z,99.99
2019-03-15T03:04:32.506Z,99.99
2019-03-15T03:05:34.217Z,99.99
2019-03-15T03:06:32.522Z,99.99
2019-03-15T03:07:32.473Z,99.99
2019-03-15T03:08:32.468Z,99.99
2019-03-15T03:09:33.525Z,99.99
2019-03-15T03:10:32.995Z,99.99
2019-03-15T03:11:32.678Z,99.99
2019-03-15T03:12:32.662Z,99.99
2019-03-15T03:13:32.724Z,99.99
2019-03-15T03:14:32.654Z,99.99
2019-03-15T03:15:32.894Z,99.99
2019-03-15T03:16:32.623Z,99.99
2019-03-15T03:17:32.638Z,99.99
2019-03-15T03:18:32.647Z,99.99
2019-03-15T03:19:32.602Z,99.99
2019-03-15T03:20:32.812Z,99.99
2019-03-15T03:21:32.582Z,99.99
2019-03-15T03:22:32.582Z,99.99
2019-03-15T03:23:32.558Z,99.99
2019-03-15T03:24:32.541Z,99.99
2019-03-15T03:25:32.791Z,99.99
2019-03-15T03:26:32.533Z,99.99
2019-03-15T03:27:33.971Z,99.99
2019-03-15T03:28:32.525Z,99.99
2019-03-15T03:29:32.492Z,99.99
2019-03-15T03:30:32.744Z,99.99
2019-03-15T03:31:32.518Z,99.99
2019-03-15T03:32:32.473Z,99.99
2019-03-15T03:33:32.796Z,99.99
2019-03-15T03:34:32.511Z,99.99
2019-03-15T03:35:32.458Z,99.99
2019-03-15T03:36:32.472Z,99.99
2019-03-15T03:37:32.203Z,99.99
2019-03-15T03:38:32.195Z,99.99
2019-03-15T03:39:32.287Z,99.99
2019-03-15T03:40:32.208Z,99.99
2019-03-15T03:41:32.181Z,99.99
2019-03-15T03:42:32.172Z,99.99
2019-03-15T03:43:32.158Z,99.99
2019-03-15T03:44:32.151Z,99.99
2019-03-15T03:45:32.211Z,99.99
2019-03-15T03:46:32.110Z,99.99
2019-03-15T03:47:32.817Z,99.99
2019-03-15T03:48:32.104Z,99.99
2019-03-15T03:49:32.082Z,99.99
2019-03-15T03:50:32.106Z,99.99
2019-03-15T03:51:32.204Z,99.99
2019-03-15T03:52:32.070Z,99.99
2019-03-15T03:53:32.054Z,99.99
2019-03-15T03:54:32.025Z,99.99
2019-03-15T03:55:32.030Z,99.99
2019-03-15T03:56:32.031Z,99.99
2019-03-15T03:57:32.098Z,99.99
2019-03-15T03:58:31.988Z,99.99
2019-03-15T03:59:31.969Z,99.99
2019-03-15T04:00:31.987Z,99.99
2019-03-15T04:01:32.061Z,99.99
2019-03-15T04:02:33.111Z,99.99
2019-03-15T04:03:32.187Z,99.99
2019-03-15T04:04:31.942Z,99.99
2019-03-15T04:05:32.003Z,99.99
2019-03-15T04:06:31.898Z,99.99
2019-03-15T04:07:31.910Z,99.99
2019-03-15T04:08:31.882Z,99.99
2019-03-15T04:09:31.885Z,99.99
2019-03-15T04:10:31.955Z,99.99
2019-03-15T04:11:31.919Z,99.99
2019-03-15T04:12:31.842Z,99.99
2019-03-15T04:13:31.841Z,99.99
2019-03-15T04:14:31.822Z,99.99
2019-03-15T04:15:31.911Z,99.99
2019-03-15T04:16:31.799Z,99.99
2019-03-15T04:17:31.790Z,99.99
2019-03-15T04:18:31.786Z,99.99
2019-03-15T04:19:31.786Z,99.99
2019-03-15T04:20:32.502Z,99.99
2019-03-15T04:21:31.752Z,99.99
2019-03-15T04:22:31.723Z,99.99
2019-03-15T04:23:31.951Z,99.99
2019-03-15T04:24:31.755Z,99.99
2019-03-15T04:25:31.804Z,99.99
2019-03-15T04:26:31.832Z,99.99
2019-03-15T04:27:31.897Z,99.99
2019-03-15T04:28:31.687Z,99.99
2019-03-15T04:29:31.686Z,99.99
2019-03-15T04:30:31.668Z,99.99
2019-03-15T04:31:31.781Z,99.99
2019-03-15T04:32:31.652Z,99.99
2019-03-15T04:33:31.638Z,99.99
2019-03-15T04:34:31.643Z,99.99
2019-03-15T04:35:31.594Z,99.99
2019-03-15T04:36:31.672Z,99.99
2019-03-15T04:37:31.630Z,99.99
2019-03-15T04:38:31.610Z,99.99
2019-03-15T04:39:31.577Z,99.99
2019-03-15T04:40:31.542Z,99.99
2019-03-15T04:41:31.619Z,99.99
2019-03-15T04:42:31.544Z,99.99
2019-03-15T04:43:31.559Z,99.99
2019-03-15T04:44:31.534Z,99.99
2019-03-15T04:45:31.492Z,99.99
2019-03-15T04:46:31.529Z,99.99
2019-03-15T04:47:31.462Z,99.99
2019-03-15T04:48:31.467Z,99.99
2019-03-15T04:49:31.454Z,99.99
2019-03-15T04:50:31.496Z,99.99
2019-03-15T04:51:31.467Z,99.99
2019-03-15T04:52:31.434Z,99.99
2019-03-15T04:53:31.396Z,99.99
2019-03-15T04:54:31.390Z,99.99
2019-03-15T04:55:31.385Z,99.99
2019-03-15T04:56:31.389Z,99.99
2019-03-15T04:57:31.400Z,99.99
2019-03-15T04:58:31.355Z,99.99
2019-03-15T04:59:31.360Z,99.99
2019-03-15T05:00:31.325Z,99.99
2019-03-15T05:01:31.358Z,99.99
2019-03-15T05:02:31.310Z,99.99
2019-03-15T05:03:31.331Z,99.99
2019-03-15T05:04:31.332Z,99.99
2019-03-15T05:05:31.313Z,99.99
2019-03-15T05:06:31.271Z,99.99
2019-03-15T05:07:31.258Z,99.99
2019-03-15T05:08:31.336Z,99.99
2019-03-15T05:09:31.274Z,99.99
2019-03-15T05:10:31.308Z,99.99
2019-03-15T05:11:33.153Z,99.99
2019-03-15T05:12:31.211Z,99.99
2019-03-15T05:13:31.256Z,99.99
2019-03-15T05:14:31.168Z,99.99
2019-03-15T05:15:32.149Z,99.99
2019-03-15T05:16:31.199Z,99.99
2019-03-15T05:17:31.160Z,99.99
2019-03-15T05:18:32.163Z,99.99
2019-03-15T05:19:31.227Z,99.99
2019-03-15T05:20:31.106Z,99.99
2019-03-15T05:21:31.154Z,99.99
2019-03-15T05:22:31.086Z,99.99
2019-03-15T05:31:19.506Z,99.99
2019-03-15T05:32:19.488Z,99.99
2019-03-15T05:33:19.443Z,99.99
2019-03-15T05:34:19.463Z,99.99
2019-03-15T05:35:19.430Z,99.99
2019-03-15T05:36:19.427Z,99.99
2019-03-15T05:37:19.430Z,99.99
2019-03-15T05:38:19.409Z,99.99
2019-03-15T05:39:19.391Z,99.99
2019-03-15T05:40:19.388Z,99.99
2019-03-15T05:41:19.422Z,99.99
2019-03-15T05:42:19.362Z,99.99
2019-03-15T05:43:19.361Z,99.99
2019-03-15T05:44:19.341Z,99.99
2019-03-15T05:45:19.327Z,99.99
2019-03-15T05:46:19.361Z,99.99
2019-03-15T05:47:19.318Z,99.99
2019-03-15T05:48:19.303Z,99.99
2019-03-15T05:49:19.289Z,99.99
2019-03-15T05:50:19.281Z,99.99
2019-03-15T05:51:19.255Z,99.99
2019-03-15T05:52:19.304Z,99.99
2019-03-15T05:53:19.251Z,99.99
2019-03-15T05:54:19.227Z,99.99
2019-03-15T05:55:19.221Z,99.99
2019-03-15T05:56:19.227Z,99.99
2019-03-15T05:57:19.237Z,99.99
2019-03-15T05:58:21.742Z,99.99
2019-03-15T05:59:19.179Z,99.99
2019-03-15T06:00:19.179Z,99.99
2019-03-15T06:01:19.166Z,99.99
2019-03-15T06:02:19.210Z,99.99
2019-03-15T06:03:19.157Z,99.99
2019-03-15T06:04:19.126Z,99.99
2019-03-15T06:05:20.039Z,99.99
2019-03-15T06:06:19.100Z,99.99
2019-03-15T06:07:19.275Z,99.99
2019-03-15T06:08:19.090Z,99.99
2019-03-15T06:09:19.082Z,99.99
2019-03-15T06:10:19.078Z,99.99
2019-03-15T06:11:19.063Z,99.99
2019-03-15T06:12:19.083Z,99.99
2019-03-15T06:13:19.046Z,99.99
2019-03-15T06:14:19.066Z,99.99
2019-03-15T06:15:19.027Z,99.99
2019-03-15T06:16:19.009Z,99.99
2019-03-15T06:17:19.038Z,99.99
2019-03-15T06:18:19.001Z,99.99
2019-03-15T06:19:18.960Z,99.99
2019-03-15T06:20:18.966Z,99.99
2019-03-15T06:21:18.953Z,99.99
2019-03-15T06:22:20.092Z,99.99
2019-03-15T06:23:18.932Z,99.99
2019-03-15T06:24:18.919Z,99.99
2019-03-15T06:25:19.046Z,99.99
2019-03-15T06:26:18.890Z,99.99
2019-03-15T06:27:18.909Z,99.99
2019-03-15T06:28:19.000Z,99.99
2019-03-15T06:29:18.869Z,99.99
2019-03-15T06:30:18.868Z,99.99
2019-03-15T06:31:18.844Z,99.99
2019-03-15T06:32:18.833Z,99.99
2019-03-15T06:33:18.869Z,99.99
2019-03-15T06:34:18.825Z,99.99
2019-03-15T06:35:18.812Z,99.99
2019-03-15T06:36:18.805Z,99.99
2019-03-15T06:37:18.786Z,99.99
2019-03-15T06:38:18.774Z,99.99
2019-03-15T06:39:18.793Z,99.99
2019-03-15T06:40:18.778Z,99.99
2019-03-15T06:41:18.747Z,99.99
2019-03-15T06:42:18.732Z,99.99
2019-03-15T06:43:18.724Z,99.99
2019-03-15T06:44:18.737Z,99.99
2019-03-15T06:45:18.712Z,99.99
2019-03-15T06:46:18.716Z,99.99
2019-03-15T06:47:18.674Z,99.99
2019-03-15T06:48:18.668Z,99.99
2019-03-15T06:49:18.658Z,99.99
2019-03-15T06:50:18.694Z,99.99
2019-03-15T06:51:18.644Z,99.99
2019-03-15T06:52:18.665Z,99.99
2019-03-15T06:53:18.613Z,99.99
2019-03-15T06:54:18.601Z,99.99
2019-03-15T06:55:18.597Z,99.99
2019-03-15T06:56:18.591Z,99.99
2019-03-15T06:57:18.609Z,99.99
2019-03-15T06:58:18.561Z,99.99
2019-03-15T06:59:18.654Z,99.99
2019-03-15T07:00:18.544Z,99.99
2019-03-15T07:01:18.538Z,99.99
2019-03-15T07:02:19.581Z,99.99
2019-03-15T07:03:18.526Z,99.99
2019-03-15T07:05:47.433Z,99.99
2019-03-15T07:06:46.620Z,99.99
2019-03-15T07:07:46.661Z,99.99
2019-03-15T07:08:46.944Z,99.99
2019-03-15T07:09:46.619Z,99.99
2019-03-15T07:10:46.567Z,99.99
2019-03-15T07:11:46.564Z,99.99
2019-03-15T07:12:48.663Z,99.99
2019-03-15T07:13:46.661Z,99.99
2019-03-15T07:14:46.542Z,99.99
2019-03-15T07:15:46.588Z,99.99
2019-03-15T07:16:47.057Z,99.99
2019-03-15T07:17:48.563Z,99.99
2019-03-15T07:18:46.495Z,99.99
2019-03-15T07:19:46.490Z,99.99
2019-03-15T07:20:46.733Z,99.99
2019-03-15T07:21:47.015Z,99.99
2019-03-15T07:22:46.447Z,99.99
2019-03-15T07:23:46.479Z,99.99
2019-03-15T07:24:46.440Z,99.99
2019-03-15T07:25:46.418Z,99.99
2019-03-15T07:26:46.408Z,99.99
2019-03-15T07:27:46.429Z,99.99
2019-03-15T07:28:46.389Z,99.99
2019-03-15T07:29:46.428Z,99.99
2019-03-15T07:30:46.361Z,99.99
2019-03-15T07:31:46.359Z,99.99
2019-03-15T07:32:46.337Z,99.99
2019-03-15T07:33:46.325Z,99.99
2019-03-15T07:34:46.370Z,99.99
2019-03-15T07:35:46.311Z,99.99
2019-03-15T07:36:46.300Z,99.99
2019-03-15T07:37:47.534Z,99.99
2019-03-15T07:38:46.284Z,99.99
2019-03-15T07:39:46.271Z,99.99
2019-03-15T07:40:46.256Z,99.99
2019-03-15T07:41:46.252Z,99.99
2019-03-15T07:42:46.340Z,99.99
2019-03-15T07:43:46.228Z,99.99
2019-03-15T07:44:48.918Z,99.99
2019-03-15T07:45:46.229Z,99.99
2019-03-15T07:46:46.209Z,99.99
2019-03-15T07:47:46.222Z,99.99
2019-03-15T07:48:46.194Z,99.99
2019-03-15T07:49:46.202Z,99.99
2019-03-15T07:50:46.148Z,99.99
2019-03-15T07:51:46.195Z,99.99
2019-03-15T07:52:46.192Z,99.99
2019-03-15T07:53:46.181Z,99.99
2019-03-15T07:54:46.117Z,99.99
2019-03-15T07:55:46.221Z,99.99
2019-03-15T07:56:46.103Z,99.99
2019-03-15T07:57:46.122Z,99.99
2019-03-15T07:58:46.068Z,99.99
2019-03-15T07:59:46.056Z,99.99
2019-03-15T08:00:46.065Z,99.99
2019-03-15T08:01:46.034Z,99.99
2019-03-15T08:02:46.050Z,99.99
2019-03-15T08:03:46.022Z,99.99
2019-03-15T08:04:46.019Z,99.99
2019-03-15T08:05:45.995Z,99.99
2019-03-15T08:06:45.996Z,99.99
2019-03-15T08:07:46.046Z,99.99
2019-03-15T08:08:46.099Z,99.99
2019-03-15T08:09:45.963Z,99.99
2019-03-15T08:10:45.958Z,99.99
2019-03-15T08:11:45.934Z,99.99
2019-03-15T08:12:49.210Z,99.99
2019-03-15T08:13:45.938Z,99.99
2019-03-15T08:14:45.909Z,99.99
2019-03-15T08:15:45.895Z,99.99
2019-03-15T08:16:46.529Z,99.99
2019-03-15T08:17:48.521Z,99.99
2019-03-15T08:18:45.903Z,99.99
2019-03-15T08:19:45.854Z,99.99
2019-03-15T08:20:45.843Z,99.99
2019-03-15T08:21:45.832Z,99.99
2019-03-15T08:22:45.811Z,99.99
2019-03-15T08:23:45.840Z,99.99
2019-03-15T08:24:51.321Z,99.99
2019-03-15T08:25:50.145Z,99.99
2019-03-15T08:26:45.776Z,99.99
2019-03-15T08:27:45.766Z,99.99
2019-03-15T08:28:45.792Z,99.99
2019-03-15T08:29:45.748Z,99.99
2019-03-15T08:30:45.729Z,99.99
2019-03-15T08:31:47.006Z,99.99
2019-03-15T08:32:45.709Z,99.99
2019-03-15T08:33:45.732Z,99.99
2019-03-15T08:34:45.696Z,99.99
2019-03-15T08:35:45.690Z,99.99
2019-03-15T08:36:45.678Z,99.99
2019-03-15T08:37:45.673Z,99.99
2019-03-15T08:38:47.755Z,99.99
2019-03-15T08:39:45.642Z,99.99
2019-03-15T08:40:45.628Z,99.99
2019-03-15T08:41:45.715Z,99.99
2019-03-15T08:42:45.620Z,99.99
2019-03-15T08:43:46.156Z,99.99
2019-03-15T08:44:45.597Z,99.99
2019-03-15T08:45:45.569Z,99.99
2019-03-15T08:46:45.569Z,99.99
2019-03-15T08:47:45.573Z,99.99
2019-03-15T08:48:45.587Z,99.99
2019-03-15T08:49:45.531Z,99.99
2019-03-15T08:50:45.524Z,99.99
2019-03-15T08:51:45.557Z,99.99
2019-03-15T08:52:45.552Z,99.99
2019-03-15T08:53:45.500Z,99.99
2019-03-15T08:54:46.803Z,99.99
2019-03-15T08:55:45.473Z,99.99
2019-03-15T08:56:45.536Z,99.99
2019-03-15T08:57:45.458Z,99.99
2019-03-15T08:58:45.479Z,99.99
2019-03-15T08:59:55.549Z,99.99
2019-03-15T09:00:46.436Z,99.99
2019-03-15T09:01:45.426Z,99.99
2019-03-15T09:02:45.421Z,99.99
2019-03-15T09:03:45.431Z,99.99
2019-03-15T09:04:45.386Z,99.99
2019-03-15T09:05:45.373Z,99.99
2019-03-15T09:06:45.359Z,99.99
2019-03-15T09:07:45.345Z,99.99
2019-03-15T09:08:45.361Z,99.99
2019-03-15T09:09:45.320Z,99.99
2019-03-15T09:10:45.334Z,99.99
2019-03-15T09:11:45.324Z,99.99
2019-03-15T09:17:14.247Z,99.99
2019-03-15T09:18:14.185Z,99.99
2019-03-15T09:19:15.000Z,99.99
2019-03-15T09:20:14.163Z,99.99
2019-03-15T09:21:14.095Z,99.99
2019-03-15T09:23:44.677Z,99.99
2019-03-15T09:24:44.672Z,99.99
2019-03-15T09:25:44.623Z,99.99
2019-03-15T09:26:44.627Z,99.99
2019-03-15T09:27:45.572Z,99.99
2019-03-15T09:28:44.611Z,99.99
2019-03-15T09:29:44.570Z,99.99
2019-03-15T09:30:44.578Z,99.99
2019-03-15T09:31:47.908Z,99.99
2019-03-15T09:32:44.542Z,99.99
2019-03-15T09:33:44.556Z,99.99
2019-03-15T09:34:44.507Z,99.99
2019-03-15T09:35:44.503Z,99.99
2019-03-15T09:36:49.942Z,99.99
2019-03-15T09:37:47.363Z,99.99
2019-03-15T09:38:44.524Z,99.99
2019-03-15T09:39:44.481Z,99.99
2019-03-15T09:40:44.446Z,99.99
2019-03-15T09:41:44.450Z,99.99
2019-03-15T09:42:44.437Z,99.99
2019-03-15T09:43:45.545Z,99.99
2019-03-15T09:44:44.408Z,99.99
2019-03-15T09:45:44.399Z,99.99
2019-03-15T09:46:44.616Z,99.99
2019-03-15T09:47:44.390Z,99.99
2019-03-15T09:48:44.738Z,99.99
2019-03-15T09:53:55.334Z,99.99
2019-03-15T09:54:55.347Z,99.99
2019-03-15T09:55:55.309Z,99.99
2019-03-15T09:56:55.247Z,99.99
2019-03-15T09:57:55.259Z,99.99
2019-03-15T09:58:55.304Z,99.99
2019-03-15T09:59:55.252Z,99.99
2019-03-15T10:00:55.224Z,99.99
2019-03-15T10:01:55.226Z,99.99
2019-03-15T10:02:56.209Z,99.99
2019-03-15T10:03:55.174Z,99.99
2019-03-15T10:04:55.186Z,99.99
2019-03-15T10:05:55.181Z,99.99
2019-03-15T10:06:55.149Z,99.99
2019-03-15T10:07:55.194Z,99.99
2019-03-15T10:08:55.182Z,99.99
2019-03-15T10:09:55.113Z,99.99
2019-03-15T10:10:55.102Z,99.99
2019-03-15T10:11:56.498Z,99.99
2019-03-15T10:13:05.239Z,99.99
2019-03-15T10:13:56.077Z,99.99
2019-03-15T10:14:55.121Z,99.99
2019-03-15T10:15:55.814Z,99.99
2019-03-15T10:16:55.039Z,99.99
2019-03-15T10:17:55.063Z,99.99
2019-03-15T10:18:55.028Z,99.99
2019-03-15T10:19:55.053Z,99.99
2019-03-15T10:20:55.574Z,99.99
2019-03-15T10:21:54.997Z,99.99
2019-03-15T10:23:05.488Z,99.99
2019-03-15T10:23:55.996Z,99.99
2019-03-15T10:24:54.984Z,99.99
2019-03-15T10:25:54.949Z,99.99
2019-03-15T10:26:54.953Z,99.99
2019-03-15T10:27:54.945Z,99.99
2019-03-15T10:28:55.667Z,99.99
2019-03-15T10:29:54.919Z,99.99
2019-03-15T10:30:54.912Z,99.99
2019-03-15T10:31:54.879Z,99.99
2019-03-15T10:32:54.890Z,99.99
2019-03-15T10:33:54.902Z,99.99
2019-03-15T10:34:54.864Z,99.99
2019-03-15T10:35:54.847Z,99.99
2019-03-15T10:36:54.835Z,99.99
2019-03-15T10:37:54.830Z,99.99
2019-03-15T10:38:54.856Z,99.99
2019-03-15T10:39:54.797Z,99.99
2019-03-15T10:40:54.791Z,99.99
2019-03-15T10:41:54.828Z,99.99
2019-03-15T10:42:55.683Z,99.99
2019-03-15T10:43:54.800Z,99.99
2019-03-15T10:44:54.762Z,99.99
2019-03-15T10:45:54.822Z,99.99
2019-03-15T10:46:54.744Z,99.99
2019-03-15T10:47:54.717Z,99.99
2019-03-15T10:48:54.725Z,99.99
2019-03-15T10:49:54.682Z,99.99
2019-03-15T10:50:54.685Z,99.99
2019-03-15T10:51:54.718Z,99.99
2019-03-15T10:52:54.666Z,99.99
2019-03-15T10:53:55.110Z,99.99
2019-03-15T10:54:54.636Z,99.99
2019-03-15T10:56:00.034Z,99.99
2019-03-15T10:56:55.671Z,99.99
2019-03-15T10:57:54.626Z,99.99
2019-03-15T10:58:54.626Z,99.99
2019-03-15T10:59:54.589Z,99.99
2019-03-15T11:00:54.576Z,99.99
2019-03-15T11:01:54.568Z,99.99
2019-03-15T11:02:54.569Z,99.99
2019-03-15T11:03:54.570Z,99.99
2019-03-15T11:04:54.556Z,99.99
2019-03-15T11:05:54.559Z,99.99
2019-03-15T11:06:54.515Z,99.99
2019-03-15T11:07:54.511Z,99.99
2019-03-15T11:08:54.562Z,99.99
2019-03-15T11:09:54.515Z,99.99
2019-03-15T11:10:54.495Z,99.99
2019-03-15T11:11:54.482Z,99.99
2019-03-15T11:12:54.460Z,99.99
2019-03-15T11:13:55.697Z,99.99
2019-03-15T11:14:54.436Z,99.99
2019-03-15T11:15:54.412Z,99.99
2019-03-15T11:16:54.415Z,99.99
2019-03-15T11:17:54.400Z,99.99
2019-03-15T11:18:54.432Z,99.99
2019-03-15T11:19:54.377Z,99.99
2019-03-15T11:20:54.363Z,99.99
2019-03-15T11:21:54.358Z,99.99
2019-03-15T11:22:54.345Z,99.99
2019-03-15T11:23:54.373Z,99.99
2019-03-15T11:24:54.348Z,99.99
2019-03-15T11:25:54.334Z,99.99
2019-03-15T11:26:54.304Z,99.99
2019-03-15T11:27:54.282Z,99.99
2019-03-15T11:28:54.340Z,99.99
2019-03-15T11:29:54.267Z,99.99
2019-03-15T11:30:54.298Z,99.99
2019-03-15T11:31:54.250Z,99.99
2019-03-15T11:32:54.247Z,99.99
2019-03-15T11:33:54.270Z,99.99
2019-03-15T11:34:54.238Z,99.99
2019-03-15T11:35:54.202Z,99.99
2019-03-15T11:36:58.609Z,99.99
2019-03-15T11:37:54.331Z,99.99
2019-03-15T11:38:54.193Z,99.99
2019-03-15T11:39:54.224Z,99.99
2019-03-15T11:40:54.154Z,99.99
2019-03-15T11:41:54.163Z,99.99
2019-03-15T11:42:54.181Z,99.99
2019-03-15T11:43:54.159Z,99.99
2019-03-15T11:44:54.259Z,99.99
2019-03-15T11:45:54.097Z,99.99
2019-03-15T11:46:54.113Z,99.99
2019-03-15T11:48:03.288Z,99.91
2019-03-15T11:48:55.088Z,99.86
2019-03-15T11:49:54.121Z,99.96
2019-03-15T11:50:54.098Z,99.99
2019-03-15T11:51:54.069Z,99.99
2019-03-15T11:52:54.056Z,99.99
2019-03-15T11:53:54.030Z,99.99
2019-03-15T11:54:54.039Z,99.30
2019-03-15T11:55:54.001Z,99.66
2019-03-15T11:56:54.001Z,99.46
2019-03-15T11:57:53.973Z,99.05
2019-03-15T11:58:54.035Z,99.10
2019-03-15T11:59:53.947Z,99.41
2019-03-15T12:00:53.945Z,99.51
2019-03-15T12:02:03.490Z,99.99
2019-03-15T12:02:54.909Z,99.99
2019-03-15T12:03:53.908Z,99.99
2019-03-15T12:04:53.892Z,99.87
2019-03-15T12:05:53.905Z,99.99
2019-03-15T12:06:53.908Z,99.26
2019-03-15T12:07:53.913Z,99.21
2019-03-15T12:08:53.854Z,99.11
2019-03-15T12:09:53.872Z,99.01
2019-03-15T12:10:53.864Z,99.46
2019-03-15T12:11:53.823Z,99.87
2019-03-15T12:12:53.823Z,99.66
2019-03-15T12:13:53.792Z,99.99
2019-03-15T12:14:53.821Z,99.37
2019-03-15T12:15:53.781Z,99.47
2019-03-15T12:16:53.779Z,98.24
2019-03-15T12:17:53.755Z,99.47
2019-03-15T12:18:53.755Z,98.39
2019-03-15T12:19:53.768Z,98.70
2019-03-15T12:20:53.734Z,99.41
2019-03-15T12:22:05.711Z,98.80
2019-03-15T12:22:54.710Z,99.62
2019-03-15T12:23:53.709Z,99.31
2019-03-15T12:24:53.723Z,99.31
2019-03-15T12:25:53.666Z,99.11
2019-03-15T12:26:53.688Z,99.31
2019-03-15T12:27:53.653Z,99.66
2019-03-15T12:28:53.659Z,99.82
2019-03-15T12:29:53.682Z,99.26
2019-03-15T12:30:53.624Z,99.99
2019-03-15T12:31:53.618Z,99.30
2019-03-15T12:32:53.605Z,99.99
2019-03-15T12:33:53.600Z,99.99
2019-03-15T12:34:53.646Z,99.99
2019-03-15T12:35:53.586Z,99.99
2019-03-15T12:36:53.589Z,99.99
2019-03-15T12:37:53.560Z,99.99
2019-03-15T12:38:53.563Z,99.99
2019-03-15T12:39:53.536Z,99.99
2019-03-15T12:40:53.556Z,99.99
2019-03-15T12:41:53.537Z,99.99
2019-03-15T12:42:53.525Z,99.99
2019-03-15T12:43:53.535Z,99.99
2019-03-15T12:44:53.778Z,99.99
2019-03-15T12:45:53.517Z,99.99
2019-03-15T12:46:53.457Z,99.99
2019-03-15T12:47:53.475Z,99.99
2019-03-15T12:48:53.446Z,99.99
2019-03-15T12:49:53.425Z,99.99
2019-03-15T12:50:53.512Z,99.99
2019-03-15T12:51:53.484Z,99.99
2019-03-15T12:52:53.415Z,99.98
2019-03-15T12:53:53.399Z,99.99
2019-03-15T12:54:53.393Z,99.99
2019-03-15T12:55:53.365Z,99.99
2019-03-15T12:56:54.210Z,99.99
2019-03-15T12:57:53.343Z,99.99
2019-03-15T12:58:53.361Z,99.99
2019-03-15T12:59:53.328Z,99.99
2019-03-15T13:00:53.317Z,99.99
2019-03-15T13:01:53.304Z,99.99
2019-03-15T13:02:53.326Z,99.99
2019-03-15T13:03:53.287Z,99.99
2019-03-15T13:04:53.289Z,99.99
2019-03-15T13:05:53.295Z,99.99
2019-03-15T13:06:53.267Z,99.99
2019-03-15T13:07:53.245Z,99.99
2019-03-15T13:08:53.233Z,99.99
2019-03-15T13:09:53.217Z,99.99
2019-03-15T13:10:53.252Z,99.99
2019-03-15T13:11:53.191Z,99.99
2019-03-15T13:12:53.186Z,99.99